createdAt,value
2022-08-18T00:01:16.468Z,12.77
2022-08-18T00:03:56.431Z,11.63
2022-08-18T00:09:12.754Z,9.30
2022-08-18T00:11:47.457Z,10.73
2022-08-18T00:14:22.117Z,12.40
2022-08-18T00:16:52.207Z,8.57
2022-08-18T00:19:20.826Z,9.40
2022-08-18T00:22:14.572Z,10.77
2022-08-18T00:24:48.393Z,12.10
2022-08-18T00:27:21.718Z,9.43
2022-08-18T00:29:57.393Z,9.73
2022-08-18T00:32:29.909Z,9.37
2022-08-18T00:34:58.509Z,12.60
2022-08-18T00:37:30.846Z,10.73
2022-08-18T00:39:59.322Z,12.03
2022-08-18T00:42:31.263Z,9.00
2022-08-18T00:45:03.786Z,10.33
2022-08-18T00:47:41.091Z,9.93
2022-08-18T00:50:15.958Z,9.13
2022-08-18T00:52:49.378Z,9.10
2022-08-18T00:55:19.504Z,8.63
2022-08-18T00:57:51.067Z,9.00
2022-08-18T01:00:22.147Z,8.63
2022-08-18T01:02:55.839Z,8.13
2022-08-18T01:05:27.888Z,8.70
2022-08-18T01:07:56.283Z,7.67
2022-08-18T01:10:25.116Z,8.23
2022-08-18T01:12:55.676Z,7.63
2022-08-18T01:15:30.167Z,9.23
2022-08-18T01:18:17.274Z,7.53
2022-08-18T01:21:08.089Z,8.23
2022-08-18T01:23:38.543Z,7.57
2022-08-18T01:26:06.384Z,8.93
2022-08-18T01:28:39.520Z,8.10
2022-08-18T01:31:09.799Z,7.00
2022-08-18T01:33:41.184Z,7.27
2022-08-18T01:36:16.666Z,8.93
2022-08-18T01:38:48.242Z,7.43
2022-08-18T01:41:28.804Z,10.13
2022-08-18T01:43:59.271Z,7.70
2022-08-18T01:46:28.351Z,6.70
2022-08-18T01:48:58.639Z,7.93
2022-08-18T01:51:40.025Z,7.60
2022-08-18T01:54:12.381Z,8.40
2022-08-18T01:56:41.159Z,7.17
2022-08-18T01:59:14.739Z,7.50
2022-08-18T02:01:48.911Z,6.73
2022-08-18T02:04:34.915Z,8.17
2022-08-18T02:07:04.291Z,7.70
2022-08-18T02:09:34.669Z,7.60
2022-08-18T02:12:02.698Z,7.90
2022-08-18T02:14:31.216Z,10.23
2022-08-18T02:17:02.571Z,6.53
2022-08-18T02:19:35.131Z,8.63
2022-08-18T02:22:03.711Z,6.57
2022-08-18T02:24:33.291Z,6.43
2022-08-18T02:27:01.375Z,6.23
2022-08-18T02:29:29.535Z,6.97
2022-08-18T02:31:58.715Z,7.03
2022-08-18T02:34:27.146Z,6.67
2022-08-18T02:36:55.557Z,6.87
2022-08-18T02:39:23.529Z,7.33
2022-08-18T02:41:53.532Z,6.23
2022-08-18T02:44:21.850Z,6.17
2022-08-18T02:46:54.137Z,6.73
2022-08-18T02:49:22.738Z,7.97
2022-08-18T02:51:51.646Z,6.43
2022-08-18T02:54:20.564Z,6.77
2022-08-18T02:56:50.240Z,8.07
2022-08-18T02:59:24.423Z,7.07
2022-08-18T03:01:54.577Z,6.63
2022-08-18T03:04:29.134Z,5.80
2022-08-18T03:07:00.788Z,9.47
2022-08-18T03:09:30.786Z,7.07
2022-08-18T03:12:00.005Z,7.47
2022-08-18T03:14:29.913Z,6.00
2022-08-18T03:16:58.609Z,7.47
2022-08-18T03:19:28.425Z,6.23
2022-08-18T03:21:59.364Z,7.07
2022-08-18T03:24:32.515Z,8.67
2022-08-18T03:27:01.980Z,5.90
2022-08-18T03:29:32.944Z,5.67
2022-08-18T03:32:01.471Z,8.20
2022-08-18T03:34:29.829Z,6.53
2022-08-18T03:36:58.251Z,6.13
2022-08-18T03:39:27.614Z,6.20
2022-08-18T03:42:01.255Z,5.77
2022-08-18T03:44:33.425Z,5.50
2022-08-18T03:47:03.192Z,5.87
2022-08-18T03:49:32.377Z,7.30
2022-08-18T03:52:01.494Z,5.80
2022-08-18T03:54:32.304Z,5.90
2022-08-18T03:57:01.339Z,5.93
2022-08-18T03:59:31.800Z,8.27
2022-08-18T04:02:05.210Z,5.63
2022-08-18T04:04:33.239Z,5.13
2022-08-18T04:07:09.956Z,5.40
2022-08-18T04:09:39.816Z,7.17
2022-08-18T04:12:13.415Z,6.97
2022-08-18T04:14:47.910Z,5.90
2022-08-18T04:17:20.369Z,7.10
2022-08-18T04:19:48.823Z,6.70
2022-08-18T04:22:18.525Z,6.70
2022-08-18T04:24:47.328Z,6.63
2022-08-18T04:27:18.760Z,5.30
2022-08-18T04:29:46.824Z,6.63
2022-08-18T04:32:15.329Z,5.90
2022-08-18T04:34:45.163Z,7.13
2022-08-18T04:37:13.901Z,5.73
2022-08-18T04:39:42.368Z,6.70
2022-08-18T04:42:10.547Z,5.57
2022-08-18T04:44:38.846Z,5.53
2022-08-18T04:47:08.306Z,7.03
2022-08-18T04:49:36.835Z,6.13
2022-08-18T04:52:40.809Z,6.23
2022-08-18T04:55:09.988Z,6.37
2022-08-18T04:57:38.343Z,5.77
2022-08-18T05:00:08.896Z,6.33
2022-08-18T05:02:37.234Z,6.27
2022-08-18T05:05:05.684Z,9.40
2022-08-18T05:07:35.522Z,6.13
2022-08-18T05:10:04.115Z,5.60
2022-08-18T05:12:32.390Z,7.13
2022-08-18T05:15:01.264Z,6.27
2022-08-18T05:17:30.317Z,6.57
2022-08-18T05:20:06.859Z,8.10
2022-08-18T05:22:40.872Z,7.80
2022-08-18T05:25:10.489Z,10.07
2022-08-18T05:27:42.550Z,6.60
2022-08-18T05:30:11.455Z,6.80
2022-08-18T05:32:48.755Z,6.70
2022-08-18T05:35:23.329Z,6.53
2022-08-18T05:38:09.262Z,5.83
2022-08-18T05:40:38.161Z,6.97
2022-08-18T05:43:06.805Z,6.03
2022-08-18T05:45:35.809Z,8.77
2022-08-18T05:48:04.207Z,6.03
2022-08-18T05:50:35.384Z,8.57
2022-08-18T05:53:14.177Z,7.50
2022-08-18T05:56:05.311Z,6.43
2022-08-18T05:58:38.233Z,6.97
2022-08-18T06:01:10.157Z,7.33
2022-08-18T06:03:51.757Z,6.20
2022-08-18T06:06:22.363Z,6.73
2022-08-18T06:09:00.491Z,6.37
2022-08-18T06:11:28.792Z,5.97
2022-08-18T06:13:59.616Z,7.73
2022-08-18T06:16:47.247Z,7.47
2022-08-18T06:19:29.722Z,5.37
2022-08-18T06:22:07.842Z,5.87
2022-08-18T06:24:45.546Z,5.30
2022-08-18T06:27:21.053Z,5.67
2022-08-18T06:30:04.661Z,6.43
2022-08-18T06:32:47.341Z,8.00
2022-08-18T06:35:22.968Z,5.97
2022-08-18T06:38:17.073Z,5.80
2022-08-18T06:40:48.834Z,5.83
2022-08-18T06:43:19.760Z,7.67
2022-08-18T06:45:53.183Z,6.37
2022-08-18T06:48:28.520Z,7.07
2022-08-18T06:51:01.080Z,6.37
2022-08-18T06:53:55.730Z,7.43
2022-08-18T06:56:29.551Z,7.67
2022-08-18T06:59:15.939Z,5.97
2022-08-18T07:01:45.866Z,8.37
2022-08-18T07:04:32.662Z,8.03
2022-08-18T07:07:01.062Z,15.27
2022-08-18T07:09:35.486Z,7.90
2022-08-18T07:12:08.353Z,12.00
2022-08-18T07:14:45.573Z,7.27
2022-08-18T07:17:16.591Z,8.03
2022-08-18T07:19:45.010Z,6.57
2022-08-18T07:22:17.076Z,6.47
2022-08-18T07:24:47.538Z,6.83
2022-08-18T07:27:19.384Z,8.17
2022-08-18T07:30:01.995Z,7.33
2022-08-18T07:32:36.364Z,6.60
2022-08-18T07:35:07.469Z,7.23
2022-08-18T07:37:42.074Z,7.43
2022-08-18T07:40:24.211Z,7.70
2022-08-18T07:43:02.240Z,8.17
2022-08-18T07:45:37.350Z,10.17
2022-08-18T07:48:36.960Z,7.30
2022-08-18T07:51:25.229Z,8.50
2022-08-18T07:54:16.532Z,6.57
2022-08-18T07:57:04.788Z,7.30
2022-08-18T07:59:39.220Z,9.40
2022-08-18T08:02:21.450Z,7.20
2022-08-18T08:04:58.189Z,8.53
2022-08-18T08:07:30.064Z,7.93
2022-08-18T08:10:09.500Z,8.37
2022-08-18T08:12:42.240Z,6.90
2022-08-18T08:15:26.839Z,7.47
2022-08-18T08:18:05.966Z,10.10
2022-08-18T08:20:40.499Z,7.73
2022-08-18T08:23:17.902Z,8.17
2022-08-18T08:25:57.018Z,10.93
2022-08-18T08:28:38.376Z,9.63
2022-08-18T08:31:35.382Z,8.43
2022-08-18T08:34:10.976Z,8.27
2022-08-18T08:36:44.929Z,9.30
2022-08-18T08:39:19.313Z,7.07
2022-08-18T08:41:51.466Z,8.33
2022-08-18T08:44:24.814Z,7.43
2022-08-18T08:47:00.096Z,7.90
2022-08-18T08:49:37.082Z,8.00
2022-08-18T08:52:11.305Z,8.20
2022-08-18T08:54:48.377Z,8.67
2022-08-18T08:57:18.904Z,7.97
2022-08-18T08:59:51.206Z,8.10
2022-08-18T09:02:48.244Z,6.93
2022-08-18T09:05:23.172Z,8.33
2022-08-18T09:08:24.129Z,7.43
2022-08-18T09:11:32.858Z,7.50
2022-08-18T09:14:23.631Z,9.60
2022-08-18T09:17:02.713Z,10.67
2022-08-18T09:19:54.894Z,6.43
2022-08-18T09:22:40.184Z,8.47
2022-08-18T09:25:11.966Z,6.57
2022-08-18T09:28:09.447Z,6.73
2022-08-18T09:30:47.460Z,7.13
2022-08-18T09:33:34.114Z,10.93
2022-08-18T09:36:33.136Z,6.93
2022-08-18T09:39:36.816Z,8.77
2022-08-18T09:42:12.891Z,9.20
2022-08-18T09:45:06.305Z,6.97
2022-08-18T09:48:01.086Z,8.47
2022-08-18T09:50:55.218Z,9.17
2022-08-18T09:53:53.898Z,7.03
2022-08-18T09:56:55.763Z,7.07
2022-08-18T09:59:57.042Z,7.40
2022-08-18T10:09:52.039Z,6.90
2022-08-18T10:12:42.584Z,7.10
2022-08-18T10:15:51.683Z,6.97
2022-08-18T10:18:37.781Z,8.83
2022-08-18T10:21:17.834Z,7.93
2022-08-18T10:24:08.526Z,8.20
2022-08-18T10:27:26.918Z,9.50
2022-08-18T10:29:59.685Z,7.20
2022-08-18T10:32:54.639Z,7.57
2022-08-18T10:35:52.668Z,9.90
2022-08-18T10:38:26.151Z,6.07
2022-08-18T10:41:09.562Z,6.63
2022-08-18T10:43:55.742Z,7.63
2022-08-18T10:46:32.945Z,8.83
2022-08-18T10:49:09.639Z,10.07
2022-08-18T10:52:11.057Z,7.10
2022-08-18T10:54:51.971Z,8.83
2022-08-18T10:57:32.474Z,7.50
2022-08-18T11:00:07.098Z,6.57
2022-08-18T11:06:14.596Z,7.77
2022-08-18T11:08:54.794Z,7.37
2022-08-18T11:11:34.109Z,7.57
2022-08-18T11:14:24.652Z,6.30
2022-08-18T11:17:00.135Z,7.07
2022-08-18T11:19:30.924Z,9.60
2022-08-18T11:22:02.648Z,9.57
2022-08-18T11:24:37.740Z,8.30
2022-08-18T11:27:18.490Z,12.47
2022-08-18T11:29:47.555Z,6.73
2022-08-18T11:32:24.224Z,6.37
2022-08-18T11:35:03.430Z,6.47
2022-08-18T11:43:40.882Z,8.47
2022-08-18T11:49:24.123Z,8.67
2022-08-18T11:54:54.254Z,9.63
2022-08-18T11:57:30.529Z,8.30
2022-08-18T12:00:01.103Z,13.53
2022-08-18T12:02:33.890Z,9.67
2022-08-18T12:05:08.581Z,6.83
2022-08-18T12:07:57.157Z,10.30
2022-08-18T12:10:33.142Z,6.63
2022-08-18T12:13:03.302Z,11.40
2022-08-18T12:18:34.112Z,8.03
2022-08-18T12:21:09.983Z,11.37
2022-08-18T12:24:01.931Z,8.77
2022-08-18T12:26:43.383Z,6.50
2022-08-18T13:07:00.228Z,6.87
2022-08-18T13:09:53.598Z,9.00
2022-08-18T13:24:32.461Z,8.43
2022-08-18T13:36:04.995Z,7.57
2022-08-18T13:47:41.620Z,10.53
2022-08-18T13:50:52.275Z,10.67
2022-08-18T13:53:51.227Z,8.70
2022-08-18T14:29:46.412Z,10.30
2022-08-18T14:32:29.190Z,7.30
2022-08-18T14:38:11.731Z,13.20
2022-08-18T14:40:44.317Z,10.10
2022-08-18T14:43:16.159Z,12.30
2022-08-18T14:45:51.171Z,7.50
2022-08-18T14:48:27.043Z,10.30
2022-08-18T14:51:00.157Z,7.67
2022-08-18T14:53:37.125Z,9.03
2022-08-18T14:56:13.264Z,12.20
2022-08-18T14:58:44.736Z,6.57
2022-08-18T15:01:18.219Z,7.67
2022-08-18T15:12:44.626Z,7.07
2022-08-18T15:18:22.768Z,7.43
2022-08-18T15:21:19.639Z,6.27
2022-08-18T15:24:25.047Z,7.43
2022-08-18T15:27:05.611Z,8.30
2022-08-18T15:29:41.559Z,6.33
2022-08-18T15:32:22.858Z,7.30
2022-08-18T15:37:45.707Z,7.97
2022-08-18T15:40:21.834Z,7.13
2022-08-18T15:43:05.127Z,7.30
2022-08-18T15:45:56.533Z,7.27
2022-08-18T15:48:32.065Z,7.63
2022-08-18T15:51:11.462Z,6.20
2022-08-18T15:53:47.873Z,7.57
2022-08-18T15:56:30.149Z,7.43
2022-08-18T15:59:12.645Z,8.23
2022-08-18T16:01:49.964Z,7.07
2022-08-18T16:04:21.020Z,8.13
2022-08-18T16:07:05.304Z,6.57
2022-08-18T16:09:43.526Z,8.47
2022-08-18T16:12:13.929Z,7.37
2022-08-18T16:17:32.912Z,7.47
2022-08-18T16:20:05.679Z,11.27
2022-08-18T16:22:35.375Z,8.43
2022-08-18T16:25:29.658Z,7.33
2022-08-18T16:28:07.711Z,7.50
2022-08-18T16:30:54.210Z,10.97
2022-08-18T16:33:30.041Z,8.90
2022-08-18T16:36:00.976Z,12.37
2022-08-18T16:41:46.197Z,8.17
2022-08-18T16:44:44.164Z,10.30
2022-08-18T16:53:41.480Z,7.53
2022-08-18T17:02:33.369Z,8.63
2022-08-18T17:05:18.062Z,8.07
2022-08-18T17:07:48.150Z,9.20
2022-08-18T17:13:12.959Z,8.23
2022-08-18T17:15:54.821Z,9.33
2022-08-18T17:18:34.765Z,10.23
2022-08-18T17:21:08.749Z,9.87
2022-08-18T17:23:42.558Z,7.80
2022-08-18T17:26:56.276Z,8.17
2022-08-18T17:29:57.739Z,8.83
2022-08-18T17:32:44.256Z,9.10
2022-08-18T17:35:26.950Z,8.27
2022-08-18T17:38:10.948Z,6.57
2022-08-18T17:40:44.995Z,6.93
2022-08-18T17:43:17.338Z,5.77
2022-08-18T17:45:58.533Z,6.87
2022-08-18T17:48:31.375Z,16.30
2022-08-18T17:51:23.419Z,17.17
2022-08-18T17:53:52.244Z,23.63
2022-08-18T17:56:23.639Z,18.67
2022-08-18T17:59:45.531Z,14.83
2022-08-18T18:02:28.632Z,15.47
2022-08-18T18:05:02.424Z,16.43
2022-08-18T18:07:38.419Z,16.80
2022-08-18T18:10:31.177Z,17.13
2022-08-18T18:16:26.921Z,15.47
2022-08-18T18:46:53.237Z,2.70
2022-08-18T19:08:43.755Z,3.47
2022-08-18T19:30:16.664Z,3.27
2022-08-18T19:58:25.735Z,3.50
2022-08-18T20:00:58.259Z,5.07
2022-08-18T20:03:51.910Z,4.17
2022-08-18T20:06:54.394Z,6.23
2022-08-18T20:09:44.455Z,2.90
2022-08-18T20:12:40.442Z,3.13
2022-08-18T20:15:16.585Z,2.10
2022-08-18T20:18:19.454Z,2.87
2022-08-18T20:21:32.805Z,3.23
2022-08-18T20:24:30.561Z,5.53
2022-08-18T20:27:16.926Z,4.47
2022-08-18T20:29:48.100Z,6.90
2022-08-18T20:32:29.679Z,4.90
2022-08-18T20:35:17.061Z,10.30
2022-08-18T20:37:45.747Z,8.33
2022-08-18T20:40:40.499Z,11.03
2022-08-18T20:43:26.548Z,9.80
2022-08-18T20:46:18.212Z,9.63
2022-08-18T20:49:10.875Z,10.70
2022-08-18T20:51:52.347Z,10.80
2022-08-18T20:54:38.955Z,13.47
2022-08-18T20:57:26.542Z,15.47
2022-08-18T21:00:02.752Z,16.10
2022-08-18T21:02:38.652Z,16.90
2022-08-18T21:05:27.516Z,16.60
2022-08-18T21:08:04.202Z,16.90
2022-08-18T21:10:36.365Z,17.63
2022-08-18T21:13:07.959Z,17.87
2022-08-18T21:15:38.590Z,16.43
2022-08-18T21:18:08.208Z,19.87
2022-08-18T21:20:38.366Z,17.63
2022-08-18T21:23:10.344Z,15.80
2022-08-18T21:25:49.486Z,17.07
2022-08-18T21:28:21.538Z,17.40
2022-08-18T21:30:56.756Z,19.97
2022-08-18T21:33:50.992Z,16.50
2022-08-18T21:36:25.615Z,16.80
2022-08-18T21:39:05.962Z,20.10
2022-08-18T21:41:35.698Z,18.50
2022-08-18T21:44:07.136Z,14.93
2022-08-18T21:46:36.015Z,15.93
2022-08-18T21:49:05.710Z,16.43
2022-08-18T21:51:44.880Z,15.13
2022-08-18T21:54:17.547Z,17.83
2022-08-18T21:56:46.325Z,15.03
2022-08-18T21:59:16.960Z,15.27
2022-08-18T22:01:50.701Z,15.00
2022-08-18T22:04:29.151Z,13.10
2022-08-18T22:07:04.854Z,16.00
2022-08-18T22:09:53.123Z,18.27
2022-08-18T22:12:46.357Z,14.20
2022-08-18T22:15:18.012Z,16.37
2022-08-18T22:18:00.956Z,15.17
2022-08-18T22:20:56.533Z,17.40
2022-08-18T22:24:07.161Z,17.13
2022-08-18T22:26:37.531Z,15.73
2022-08-18T22:29:18.790Z,15.57
2022-08-18T22:31:50.068Z,16.57
2022-08-18T22:34:27.723Z,17.43
2022-08-18T22:36:59.920Z,18.00
2022-08-18T22:39:31.574Z,15.73
2022-08-18T22:42:10.396Z,14.13
2022-08-18T22:44:39.695Z,13.23
2022-08-18T22:47:08.541Z,14.67
2022-08-18T22:49:37.752Z,15.37
2022-08-18T22:52:07.493Z,11.37
2022-08-18T22:54:37.801Z,10.80
2022-08-18T22:57:08.524Z,9.87
2022-08-18T22:59:37.231Z,7.97
2022-08-18T23:02:11.720Z,8.10
2022-08-18T23:04:41.689Z,7.57
2022-08-18T23:07:10.240Z,7.03
2022-08-18T23:09:40.687Z,7.73
2022-08-18T23:12:14.722Z,8.27
2022-08-18T23:14:46.264Z,7.90
2022-08-18T23:17:15.366Z,6.93
2022-08-18T23:19:47.157Z,7.40
2022-08-18T23:22:16.261Z,7.27
2022-08-18T23:24:46.465Z,5.87
2022-08-18T23:27:17.074Z,5.67
2022-08-18T23:29:45.885Z,5.87
2022-08-18T23:32:14.490Z,6.33
2022-08-18T23:34:43.050Z,5.93
2022-08-18T23:37:12.073Z,5.73
2022-08-18T23:39:41.914Z,5.10
2022-08-18T23:42:14.274Z,5.60
2022-08-18T23:44:43.661Z,4.90
2022-08-18T23:49:55.004Z,4.83
2022-08-18T23:52:23.649Z,5.07
2022-08-18T23:54:52.234Z,4.23
2022-08-18T23:57:22.462Z,4.20
2022-08-18T23:59:51.630Z,6.17
